»·PEaware :: N7CM KLAS-KSNA

N7CM :: KLAS-KSNA

FLIGHT INFORMATION

Flight Status: Arrived
Operator: Privately registered:
United States
More flights under this callsign
Pilot: Carlos D. (29349)
Aircraft: CESSNA 550 CITATION 2/S2/BRAVO
(C550)
More flights by this aircraft type
Origin: KLAS McCarran Intl
United States
Destination: KSNA John Wayne-Orange Co
United States
More flights between these airports :: More routes between these airports
Route: BOACH8 WHIGG FEYLA DSNEE4
File this flight plan on PilotEdge
Remarks:
Altitude:
(Current/Filed)
22,000ft
Speed:
(Current/Filed)
275kts
Departed: 07-Jan-21 04:33 PM
Arrived: 07-Jan-21 05:24 PM
Distance/Time
Traveled:
197nm/0:51
Distance/Time
To Go:
Arrived

Flight Plot

Page will automatically refresh every two minutes.

Flight plan parsing failed; only flown route is shown


Map Options




Map Legend


Flown Route
Filed Route
Departure Airport
Arrival Airport
Navaid (VOR, NDB)
Fix

Horizontal Profiles

Position Reports

Time Latitude Longitude Heading Altitude Ground
Speed
07-Jan-21 16:07 36.100224 -115.159541 214 2093ft 0kts
07-Jan-21 16:08 36.100224 -115.159541 214 2093ft 0kts
07-Jan-21 16:09 36.100224 -115.159541 214 2093ft 0kts
07-Jan-21 16:10 36.100224 -115.159541 214 2093ft 0kts
07-Jan-21 16:11 36.100224 -115.159541 214 2093ft 0kts
07-Jan-21 16:12 36.100224 -115.159541 214 2093ft 0kts
07-Jan-21 16:13 36.100224 -115.159541 214 2093ft 0kts
07-Jan-21 16:14 36.100224 -115.159541 214 2093ft 0kts
07-Jan-21 16:15 36.100224 -115.159541 214 2093ft 0kts
07-Jan-21 16:16 36.100224 -115.159541 214 2093ft 0kts
07-Jan-21 16:17 36.100224 -115.159541 214 2093ft 0kts
07-Jan-21 16:18 36.100224 -115.159541 214 2093ft 0kts
07-Jan-21 16:19 36.100224 -115.159541 214 2093ft 0kts
07-Jan-21 16:20 36.100224 -115.159541 214 2093ft 0kts
07-Jan-21 16:21 36.100224 -115.159541 214 2093ft 0kts
07-Jan-21 16:22 36.100224 -115.159541 214 2093ft 0kts
07-Jan-21 16:23 36.100224 -115.159541 214 2093ft 0kts
07-Jan-21 16:24 36.100224 -115.159541 214 2093ft 0kts
07-Jan-21 16:25 36.099430 -115.158962 113 2092ft 5kts
07-Jan-21 16:26 36.099201 -115.158257 65 2089ft 0kts
07-Jan-21 16:27 36.099797 -115.157740 53 2087ft 1kts
07-Jan-21 16:28 36.099832 -115.157620 81 2087ft 0kts
07-Jan-21 16:30 36.099832 -115.157620 81 2087ft 0kts
07-Jan-21 16:31 36.099832 -115.157617 81 2087ft 0kts
07-Jan-21 16:32 36.099229 -115.156714 201 2085ft 2kts
07-Jan-21 16:33 36.073322 -115.170779 204 3434ft 119kts
07-Jan-21 16:34 36.008494 -115.220582 237 6831ft 200kts
07-Jan-21 16:35 35.975330 -115.290184 225 9484ft 201kts
07-Jan-21 16:36 35.921365 -115.307570 187 11831ft 212kts
07-Jan-21 16:37 35.862122 -115.314224 184 13984ft 218kts
07-Jan-21 16:38 35.800911 -115.308326 178 15987ft 222kts
07-Jan-21 16:39 35.738692 -115.301640 180 17762ft 227kts
07-Jan-21 16:40 35.676321 -115.300373 215 19188ft 226kts
07-Jan-21 16:41 35.634951 -115.352809 231 20892ft 215kts
07-Jan-21 16:42 35.594457 -115.407677 231 22045ft 228kts
07-Jan-21 16:42 35.555576 -115.459694 231 22045ft 265kts
07-Jan-21 16:44 35.495135 -115.541284 231 22138ft 287kts
07-Jan-21 16:45 35.439883 -115.615218 231 22084ft 298kts
07-Jan-21 16:46 35.382558 -115.693066 229 21945ft 320kts
07-Jan-21 16:47 35.323554 -115.772167 231 21963ft 327kts
07-Jan-21 16:47 35.270678 -115.842722 230 22014ft 343kts
07-Jan-21 16:48 35.205523 -115.928179 228 22009ft 344kts
07-Jan-21 16:50 35.127768 -116.026347 228 22008ft 345kts
07-Jan-21 16:51 35.060871 -116.110527 228 22007ft 345kts
07-Jan-21 16:51 35.005290 -116.180267 228 22010ft 345kts
07-Jan-21 16:52 34.938249 -116.264233 229 22011ft 347kts
07-Jan-21 16:53 34.870914 -116.348762 230 22004ft 349kts
07-Jan-21 16:54 34.803859 -116.434232 230 21996ft 350kts
07-Jan-21 16:55 34.736460 -116.519920 230 21996ft 351kts
07-Jan-21 16:56 34.665537 -116.601337 224 21997ft 353kts
07-Jan-21 16:57 34.589544 -116.676228 222 21898ft 335kts
07-Jan-21 16:58 34.521113 -116.743077 223 20899ft 305kts
07-Jan-21 16:59 34.460048 -116.810860 227 19793ft 298kts
07-Jan-21 17:00 34.400960 -116.879525 227 17793ft 291kts
07-Jan-21 17:01 34.345036 -116.944281 226 15395ft 267kts
07-Jan-21 17:02 34.294771 -117.002068 226 13946ft 223kts
07-Jan-21 17:03 34.242752 -117.050583 214 13284ft 257kts
07-Jan-21 17:04 34.182223 -117.094736 213 11911ft 237kts
07-Jan-21 17:05 34.126876 -117.126190 207 11991ft 225kts
07-Jan-21 17:06 34.067422 -117.158245 206 11990ft 242kts
07-Jan-21 17:07 34.005051 -117.192005 214 11986ft 243kts
07-Jan-21 17:08 33.960471 -117.247046 230 11986ft 218kts
07-Jan-21 17:09 33.919182 -117.304583 232 10589ft 231kts
07-Jan-21 17:10 33.875588 -117.366216 232 8581ft 249kts
07-Jan-21 17:11 33.863006 -117.440873 272 7353ft 228kts
07-Jan-21 17:12 33.870669 -117.516115 282 6140ft 227kts
07-Jan-21 17:13 33.881334 -117.585153 282 5889ft 185kts
07-Jan-21 17:14 33.890184 -117.641267 282 5452ft 182kts
07-Jan-21 17:15 33.894045 -117.705922 235 3993ft 193kts
07-Jan-21 17:16 33.860272 -117.749831 220 3689ft 171kts
07-Jan-21 17:17 33.823306 -117.775088 209 3196ft 139kts
07-Jan-21 17:18 33.790035 -117.796243 209 2493ft 133kts
07-Jan-21 17:19 33.758991 -117.815968 208 1809ft 108kts
07-Jan-21 17:20 33.735447 -117.830934 208 1278ft 90kts
07-Jan-21 17:21 33.712995 -117.845177 207 786ft 89kts
07-Jan-21 17:22 33.690945 -117.859160 207 305ft 90kts
07-Jan-21 17:23 33.672563 -117.870875 226 61ft 7kts
07-Jan-21 17:24 33.672532 -117.872212 316 61ft 0kts

Navigation Log

Ident Type
Flight plan parsing failed, navigation log unavailable